Time;durP1;ratioP1;P1;durP2;ratioP2;P2;SDS_P1;SDS_P2;PMS_P1;PMS_P2;Temp;Humidity;BMP_temperature;BMP_pressure;BME280_temperature;BME280_humidity;BME280_pressure;Samples;Min_cycle;Max_cycle;Signal;HPM_P1;HPM_P2
2022/08/31 00:05:59;;;;;;;11.88;3.55;;;;;;;17.36;72.19;102148.03;5050964;28;20051;-41
2022/08/31 00:08:25;;;;;;;14.98;2.92;;;;;;;17.31;72.26;102157.59;5054247;28;20044;-41
2022/08/31 00:10:53;;;;;;;5.40;2.95;;;;;;;17.34;71.90;102162.66;5062018;28;20056;-41
2022/08/31 00:13:20;;;;;;;5.53;3.05;;;;;;;17.32;72.04;102153.88;5052326;28;20036;-38
2022/08/31 00:15:45;;;;;;;5.97;2.97;;;;;;;17.33;71.92;102160.97;5051703;28;20116;-42
2022/08/31 00:18:11;;;;;;;7.20;3.28;;;;;;;17.31;71.88;102156.75;5052127;28;20151;-41
2022/08/31 00:20:36;;;;;;;8.30;2.95;;;;;;;17.33;71.59;102160.97;5033402;28;20029;-43
2022/08/31 00:23:03;;;;;;;13.98;3.67;;;;;;;17.30;71.31;102161.38;5051912;28;20128;-42
2022/08/31 00:25:28;;;;;;;12.10;3.28;;;;;;;17.29;71.53;102154.22;5051431;28;20115;-42
2022/08/31 00:27:54;;;;;;;8.48;3.55;;;;;;;17.27;71.55;102159.03;5054149;28;20182;-39
2022/08/31 00:30:20;;;;;;;8.23;3.10;;;;;;;17.25;71.49;102158.38;5061517;28;20345;-42
2022/08/31 00:32:46;;;;;;;10.68;3.05;;;;;;;17.23;71.33;102151.47;5049793;28;20033;-41
2022/08/31 00:35:11;;;;;;;7.93;3.08;;;;;;;17.21;71.35;102157.06;5051677;28;20021;-42
2022/08/31 00:37:37;;;;;;;5.97;3.10;;;;;;;17.19;71.28;102159.13;5051072;28;20025;-43
2022/08/31 00:40:03;;;;;;;10.40;3.70;;;;;;;17.18;71.19;102156.63;5051362;28;20473;-41
2022/08/31 00:42:29;;;;;;;7.95;2.95;;;;;;;17.12;71.28;102160.97;5051933;28;20535;-42
2022/08/31 00:44:54;;;;;;;7.85;3.35;;;;;;;17.12;71.26;102158.25;5035622;28;20025;-42
2022/08/31 00:47:19;;;;;;;13.45;2.95;;;;;;;17.12;71.29;102152.81;5051815;28;20112;-40
2022/08/31 00:49:48;;;;;;;12.85;3.40;;;;;;;17.11;71.25;102151.09;5035470;28;20024;-42
2022/08/31 00:52:23;;;;;;;8.30;3.25;;;;;;;17.09;71.09;102156.75;5051343;28;20029;-40
2022/08/31 00:54:54;;;;;;;9.82;3.45;;;;;;;17.08;71.04;102159.66;5033959;28;20028;-41
2022/08/31 00:57:19;;;;;;;9.77;2.95;;;;;;;17.04;71.11;102161.94;5040325;28;20033;-42
2022/08/31 00:59:46;;;;;;;7.95;2.90;;;;;;;17.08;70.78;102157.78;5036454;28;20047;-40
2022/08/31 01:02:11;;;;;;;9.20;2.78;;;;;;;17.04;70.87;102161.94;5033909;28;20392;-41
2022/08/31 01:04:37;;;;;;;16.48;3.58;;;;;;;17.03;70.76;102159.41;5033630;28;20017;-41
2022/08/31 01:07:04;;;;;;;6.82;2.92;;;;;;;17.04;70.43;102161.09;5051263;28;20035;-41
2022/08/31 01:09:32;;;;;;;15.13;3.50;;;;;;;16.99;70.37;102155.41;5051609;28;20056;-41
2022/08/31 01:11:57;;;;;;;6.15;2.72;;;;;;;16.98;70.47;102161.84;5033939;28;20119;-42
2022/08/31 01:14:23;;;;;;;9.25;3.50;;;;;;;16.99;70.41;102160.84;5051866;28;20584;-44
2022/08/31 01:16:51;;;;;;;10.40;2.97;;;;;;;16.96;70.49;102158.50;5051544;28;20036;-41
2022/08/31 01:19:30;;;;;;;6.22;2.78;;;;;;;16.93;70.67;102150.69;5050103;28;20068;-42
2022/08/31 01:22:04;;;;;;;7.85;2.90;;;;;;;16.91;70.38;102158.22;5015640;28;20033;-43
2022/08/31 01:24:31;;;;;;;6.65;2.85;;;;;;;16.89;70.25;102148.38;5033119;28;20108;-42
2022/08/31 01:27:02;;;;;;;6.13;2.72;;;;;;;16.87;70.25;102150.44;5037500;28;20126;-41
2022/08/31 01:29:27;;;;;;;12.57;2.90;;;;;;;16.85;70.25;102160.69;5055328;28;20437;-40
2022/08/31 01:31:53;;;;;;;11.60;2.95;;;;;;;16.83;70.42;102154.59;5057953;28;20052;-40
2022/08/31 01:34:18;;;;;;;5.60;2.83;;;;;;;16.78;70.51;102154.31;5052555;28;20484;-40
2022/08/31 01:36:46;;;;;;;13.13;3.45;;;;;;;16.80;70.18;102160.41;5033894;28;20082;-41
2022/08/31 01:39:12;;;;;;;;;;;;;;;16.78;70.21;102150.75;5052133;28;20021;-39
2022/08/31 01:41:42;;;;;;;5.85;2.40;;;;;;;16.78;70.00;102150.75;5049812;28;19923;-41
2022/08/31 01:44:07;;;;;;;7.95;2.30;;;;;;;16.76;69.82;102155.50;5032110;28;20314;-41
2022/08/31 01:46:33;;;;;;;6.10;2.92;;;;;;;16.73;69.78;102151.28;5050777;28;20488;-39
2022/08/31 01:48:58;;;;;;;5.93;3.03;;;;;;;16.71;69.76;102158.78;5050661;28;20392;-42
2022/08/31 01:51:24;;;;;;;26.85;3.50;;;;;;;16.70;69.69;102151.69;5049819;28;20147;-42
2022/08/31 01:53:51;;;;;;;7.82;2.75;;;;;;;16.65;69.56;102151.41;5049857;28;20396;-41
2022/08/31 01:56:20;;;;;;;13.85;2.83;;;;;;;16.65;69.37;102156.84;5047565;28;20581;-41
2022/08/31 01:58:46;;;;;;;7.00;2.75;;;;;;;16.63;69.45;102161.63;5031678;28;20194;-41
2022/08/31 02:01:11;;;;;;;5.38;2.70;;;;;;;16.65;69.06;102154.13;5050263;28;20049;-42
2022/08/31 02:03:37;;;;;;;5.60;2.70;;;;;;;16.60;69.01;102159.28;5032080;28;20496;-40
2022/08/31 02:08:37;;;;;;;4.57;2.25;;;;;;;16.60;68.86;102159.28;5068166;23;20034;-45
2022/08/31 02:11:04;;;;;;;7.43;2.30;;;;;;;16.62;68.67;102158.06;5076464;28;20080;-45
2022/08/31 02:13:30;;;;;;;4.63;2.50;;;;;;;16.56;68.69;102163.41;5075976;28;20315;-43
2022/08/31 02:15:55;;;;;;;8.00;2.72;;;;;;;16.55;68.93;102153.56;5076732;28;20045;-43
2022/08/31 02:18:21;;;;;;;10.00;3.28;;;;;;;16.56;68.59;102152.53;5076644;28;20011;-45
2022/08/31 02:20:46;;;;;;;5.05;2.35;;;;;;;16.51;68.52;102154.97;5076592;28;20080;-43
2022/08/31 02:23:11;;;;;;;4.18;2.50;;;;;;;16.51;68.62;102160.41;5075256;28;20058;-45
2022/08/31 02:25:37;;;;;;;8.38;2.95;;;;;;;16.50;68.70;102158.72;5071489;28;20005;-45
2022/08/31 02:28:02;;;;;;;11.52;2.70;;;;;;;16.48;68.81;102155.34;5075992;28;20020;-41
2022/08/31 02:30:27;;;;;;;7.53;2.75;;;;;;;16.47;68.60;102157.25;5076485;28;20013;-44
2022/08/31 02:32:53;;;;;;;8.18;2.83;;;;;;;16.40;68.89;102159.00;5075329;28;20033;-43
2022/08/31 02:35:18;;;;;;;5.55;2.53;;;;;;;16.39;69.00;102149.19;5080333;28;20155;-42
2022/08/31 02:37:45;;;;;;;7.78;3.15;;;;;;;16.35;69.02;102159.59;5080231;28;20024;-42
2022/08/31 02:40:10;;;;;;;7.38;2.78;;;;;;;16.34;69.15;102155.19;5080464;28;20017;-42
2022/08/31 02:42:36;;;;;;;6.82;2.80;;;;;;;16.32;69.11;102149.09;5078679;28;20028;-43
2022/08/31 02:45:03;;;;;;;9.60;2.50;;;;;;;16.33;68.99;102150.78;5080362;28;20032;-42
2022/08/31 02:47:30;;;;;;;10.52;3.00;;;;;;;16.30;68.96;102159.31;5079662;28;20017;-43
2022/08/31 02:49:55;;;;;;;7.13;2.80;;;;;;;16.31;68.76;102154.72;5080580;28;20041;-44
2022/08/31 02:52:21;;;;;;;5.88;2.58;;;;;;;16.29;68.79;102146.75;5078932;28;20036;-44
2022/08/31 02:54:46;;;;;;;10.50;2.75;;;;;;;16.28;68.68;102155.94;5080190;28;20035;-42
2022/08/31 02:57:11;;;;;;;6.63;2.67;;;;;;;16.25;68.89;102156.31;5080002;28;20012;-42
2022/08/31 02:59:37;;;;;;;5.72;2.83;;;;;;;16.23;68.96;102152.94;5078810;28;20021;-43
2022/08/31 03:02:02;;;;;;;6.97;2.65;;;;;;;16.23;68.90;102155.66;5079701;28;20020;-45
2022/08/31 03:04:28;;;;;;;15.95;3.38;;;;;;;16.23;69.09;102152.94;5079661;28;20016;-44
2022/08/31 03:06:54;;;;;;;6.68;3.08;;;;;;;16.24;69.05;102157.34;5079663;28;20012;-44
2022/08/31 03:09:19;;;;;;;6.38;2.70;;;;;;;16.22;69.19;102162.13;5079274;28;20006;-44
2022/08/31 03:11:44;;;;;;;5.95;2.88;;;;;;;16.19;69.04;102159.75;5064843;28;20094;-44
2022/08/31 03:14:10;;;;;;;8.55;2.53;;;;;;;16.16;69.36;102158.25;5059452;28;20071;-42
2022/08/31 03:16:38;;;;;;;8.57;2.90;;;;;;;16.19;69.29;102157.03;5059662;28;20048;-44
2022/08/31 03:19:03;;;;;;;6.90;2.72;;;;;;;16.18;69.27;102166.25;5059153;28;20018;-43
2022/08/31 03:21:29;;;;;;;6.65;2.60;;;;;;;16.14;69.46;102164.91;5058998;28;20021;-44
2022/08/31 03:23:54;;;;;;;6.65;2.30;;;;;;;16.15;69.48;102163.91;5059495;28;20015;-41
2022/08/31 03:26:19;;;;;;;5.90;2.65;;;;;;;16.13;69.42;102157.81;5059633;28;20241;-43
2022/08/31 03:28:45;;;;;;;7.78;2.38;;;;;;;16.12;69.39;102161.56;5058425;28;20028;-43
2022/08/31 03:31:10;;;;;;;8.40;2.60;;;;;;;16.12;69.54;102162.41;5072035;28;20021;-43
2022/08/31 03:33:36;;;;;;;3.50;2.28;;;;;;;16.12;69.44;102165.13;5065874;28;20021;-43
2022/08/31 03:36:04;;;;;;;7.20;2.60;;;;;;;16.11;69.56;102170.72;5059458;28;20052;-42
2022/08/31 03:38:30;;;;;;;7.72;2.83;;;;;;;16.11;69.13;102168.00;5059236;28;20017;-44
2022/08/31 03:40:55;;;;;;;6.75;2.42;;;;;;;16.09;69.29;102170.06;5059362;28;20020;-43
2022/08/31 03:43:20;;;;;;;11.57;2.78;;;;;;;16.05;69.21;102160.63;5059063;28;20017;-41
2022/08/31 03:45:48;;;;;;;11.23;2.63;;;;;;;16.05;69.20;102171.47;5058125;28;20048;-43
2022/08/31 03:48:14;;;;;;;6.43;2.38;;;;;;;16.04;69.05;102170.63;5058966;28;20022;-43
2022/08/31 03:50:40;;;;;;;7.90;2.67;;;;;;;16.01;69.11;102171.00;5058060;28;20021;-43
2022/08/31 03:53:06;;;;;;;6.55;2.65;;;;;;;16.02;69.21;102168.09;5058770;28;20489;-44
2022/08/31 03:55:32;;;;;;;10.75;2.95;;;;;;;16.02;68.76;102181.66;5058227;28;20047;-43
2022/08/31 03:57:58;;;;;;;8.25;2.72;;;;;;;15.96;68.97;102179.72;5070662;28;20014;-43
2022/08/31 04:00:24;;;;;;;4.75;2.75;;;;;;;15.96;68.93;102173.44;5058747;28;20055;-43
2022/08/31 04:02:49;;;;;;;14.02;3.03;;;;;;;15.97;68.86;102191.41;5058997;28;20021;-42
2022/08/31 04:05:15;;;;;;;10.73;2.58;;;;;;;15.99;68.49;102187.47;5058408;28;20287;-43
2022/08/31 04:07:40;;;;;;;7.95;2.28;;;;;;;15.95;68.51;102180.72;5062802;28;20076;-43
2022/08/31 04:10:07;;;;;;;6.20;2.42;;;;;;;15.98;68.45;102187.66;5059976;28;20021;-42
2022/08/31 04:12:32;;;;;;;7.40;2.83;;;;;;;15.96;68.50;102185.13;5059270;28;20013;-42
2022/08/31 04:14:57;;;;;;;8.95;2.50;;;;;;;15.95;68.54;102182.59;5077958;28;20044;-44
2022/08/31 04:17:23;;;;;;;9.65;3.10;;;;;;;15.95;68.47;102180.72;5058350;28;20039;-43
2022/08/31 04:19:48;;;;;;;3.13;2.45;;;;;;;15.92;68.75;102194.66;5078366;28;20028;-44
2022/08/31 04:22:13;;;;;;;5.57;2.78;;;;;;;15.93;68.42;102188.22;5076076;28;20077;-43
2022/08/31 04:24:39;;;;;;;4.22;2.50;;;;;;;15.92;68.66;102194.66;5078541;28;20028;-44
2022/08/31 04:27:04;;;;;;;10.70;3.28;;;;;;;15.91;68.44;102192.16;5060094;28;20013;-43
2022/08/31 04:29:30;;;;;;;8.15;2.60;;;;;;;15.90;68.31;102196.72;5058088;28;20095;-43
2022/08/31 04:31:55;;;;;;;4.10;2.33;;;;;;;15.89;68.58;102188.78;5057619;28;20080;-43
2022/08/31 04:34:21;;;;;;;7.53;2.35;;;;;;;15.86;68.48;102189.97;5061240;28;20024;-43
2022/08/31 04:36:46;;;;;;;5.30;3.05;;;;;;;15.87;68.02;102194.38;5057021;28;20017;-44
2022/08/31 04:39:12;;;;;;;6.28;2.47;;;;;;;15.88;67.93;102193.38;5058128;28;20100;-44
2022/08/31 04:41:38;;;;;;;21.23;2.55;;;;;;;15.87;68.23;102186.22;5057951;28;20028;-43
2022/08/31 04:44:04;;;;;;;18.33;2.55;;;;;;;15.87;67.89;102183.50;5063351;28;20077;-43
2022/08/31 04:46:31;;;;;;;6.93;2.55;;;;;;;15.88;68.06;102185.22;5057619;28;20021;-45
2022/08/31 04:48:57;;;;;;;9.73;2.30;;;;;;;15.87;67.75;102188.94;5051974;28;20040;-43
2022/08/31 04:51:29;;;;;;;6.88;3.08;;;;;;;15.85;67.35;102185.59;5058239;28;20013;-43
2022/08/31 04:53:54;;;;;;;9.98;2.25;;;;;;;15.88;67.12;102192.53;5056063;28;20081;-45
2022/08/31 04:56:23;;;;;;;8.52;2.63;;;;;;;15.86;67.09;102189.97;5042831;28;20025;-44
2022/08/31 04:58:51;;;;;;;7.78;1.83;;;;;;;15.86;66.43;102198.13;5057669;28;20048;-42
2022/08/31 05:01:19;;;;;;;4.80;2.15;;;;;;;15.90;65.70;102190.44;5056219;28;20018;-44
2022/08/31 05:03:47;;;;;;;5.22;2.20;;;;;;;15.90;65.56;102191.28;5057060;28;20028;-42
2022/08/31 05:06:14;;;;;;;4.65;2.00;;;;;;;15.86;65.31;102189.97;5056818;28;20025;-44
2022/08/31 05:08:39;;;;;;;4.17;1.97;;;;;;;15.90;64.76;102196.72;5073866;28;20036;-43
2022/08/31 05:11:09;;;;;;;8.25;1.98;;;;;;;15.90;64.99;102194.00;5070821;28;20014;-44
2022/08/31 05:13:36;;;;;;;8.15;1.80;;;;;;;15.91;64.79;102193.00;5063212;28;20017;-43
2022/08/31 05:16:03;;;;;;;7.73;2.20;;;;;;;15.90;64.61;102199.44;5056076;28;20040;-45
2022/08/31 05:18:28;;;;;;;3.67;1.77;;;;;;;15.91;64.65;102198.41;5056174;28;20027;-43
2022/08/31 05:20:54;;;;;;;10.30;2.10;;;;;;;15.98;64.50;102195.78;5062531;28;20315;-42
2022/08/31 05:23:19;;;;;;;5.15;1.80;;;;;;;16.01;64.55;102204.44;5054731;28;20013;-44
2022/08/31 05:25:45;;;;;;;5.35;2.28;;;;;;;16.03;64.99;102206.94;5064104;28;20031;-43
2022/08/31 05:28:11;;;;;;;7.22;2.20;;;;;;;16.08;65.50;102214.56;5060465;28;20005;-44
2022/08/31 05:30:36;;;;;;;6.60;2.15;;;;;;;16.15;65.64;102212.78;5056120;28;20058;-42
2022/08/31 05:33:01;;;;;;;4.43;2.25;;;;;;;16.32;65.44;102206.13;5057738;28;20086;-45
2022/08/31 05:35:27;;;;;;;3.95;1.90;;;;;;;16.63;64.81;102207.81;5057081;28;20022;-46
2022/08/31 05:37:52;;;;;;;6.75;1.77;;;;;;;17.06;63.47;102207.97;5077071;28;20017;-45
2022/08/31 05:40:18;;;;;;;4.97;1.90;;;;;;;17.66;61.49;102214.03;5071402;28;20044;-43
2022/08/31 05:42:43;;;;;;;5.28;1.90;;;;;;;18.09;59.33;102209.41;5064612;28;20021;-45
2022/08/31 05:45:09;;;;;;;10.43;1.90;;;;;;;18.59;57.89;102215.59;5055260;28;20025;-44
2022/08/31 05:47:34;;;;;;;5.85;1.70;;;;;;;19.06;56.84;102211.22;5072826;28;20009;-43
2022/08/31 05:49:59;;;;;;;6.15;1.67;;;;;;;19.78;54.15;102214.28;5068776;28;20017;-45
2022/08/31 05:52:25;;;;;;;7.20;1.80;;;;;;;20.39;52.23;102222.22;5058622;28;20020;-43
2022/08/31 05:54:50;;;;;;;7.32;2.17;;;;;;;20.74;50.39;102218.34;5068780;28;20086;-45
2022/08/31 05:57:16;;;;;;;8.30;1.70;;;;;;;20.90;49.56;102217.03;5036099;28;20026;-44
2022/08/31 05:59:41;;;;;;;4.53;2.00;;;;;;;20.96;49.45;102221.66;5052628;28;20052;-44
2022/08/31 06:02:09;;;;;;;11.23;1.92;;;;;;;21.10;49.75;102223.25;5055318;28;20279;-46
2022/08/31 06:04:34;;;;;;;6.10;1.50;;;;;;;21.38;48.46;102227.53;5056554;28;20085;-45
2022/08/31 06:07:00;;;;;;;5.75;1.60;;;;;;;21.69;47.62;102233.00;5055929;28;20014;-44
2022/08/31 06:09:25;;;;;;;4.45;1.58;;;;;;;21.99;46.35;102226.88;5058665;28;20025;-45
2022/08/31 06:11:52;;;;;;;2.03;1.40;;;;;;;22.24;46.04;102235.09;5060696;28;20021;-44
2022/08/31 06:14:21;;;;;;;4.75;1.48;;;;;;;22.53;45.07;102233.50;5060167;28;20013;-43
2022/08/31 06:16:46;;;;;;;4.70;1.55;;;;;;;22.66;44.21;102232.53;5059328;28;20021;-43
2022/08/31 06:19:12;;;;;;;7.65;1.70;;;;;;;22.93;43.60;102238.56;5059676;28;20014;-43
2022/08/31 06:21:41;;;;;;;5.40;1.77;;;;;;;22.53;44.39;102241.75;5059768;28;20018;-42
2022/08/31 06:24:10;;;;;;;5.38;1.73;;;;;;;21.98;45.57;102236.13;5058423;28;20018;-43
2022/08/31 06:26:36;;;;;;;4.95;1.90;;;;;;;21.69;46.06;102237.66;5058497;28;20028;-41
2022/08/31 06:29:04;;;;;;;5.88;1.88;;;;;;;21.31;47.39;102230.28;5063503;28;20081;-42
2022/08/31 06:31:31;;;;;;;;;;;;;;;20.80;48.26;102234.75;5051422;28;20081;-42
2022/08/31 06:33:57;;;;;;;4.47;1.60;;;;;;;20.24;49.92;102228.97;5059400;28;19897;-42
2022/08/31 06:36:24;;;;;;;5.72;1.67;;;;;;;19.77;51.88;102223.53;5059409;28;20021;-42
2022/08/31 06:38:50;;;;;;;4.90;1.83;;;;;;;19.20;53.14;102233.91;5058942;28;20009;-42
2022/08/31 06:41:22;;;;;;;4.63;2.08;;;;;;;19.01;54.42;102238.25;5059453;28;20028;-44
2022/08/31 06:43:48;;;;;;;9.65;1.67;;;;;;;19.19;54.61;102236.84;5059648;28;20013;-42
2022/08/31 06:46:14;;;;;;;6.10;1.70;;;;;;;19.87;52.59;102223.09;5056324;28;20037;-45
2022/08/31 06:48:40;;;;;;;3.03;1.55;;;;;;;20.66;50.37;102233.09;5059344;28;20013;-44
2022/08/31 06:51:06;;;;;;;9.02;1.80;;;;;;;21.81;47.53;102229.56;5058020;28;20018;-44
2022/08/31 06:53:33;;;;;;;4.93;1.63;;;;;;;22.86;45.12;102236.97;5058636;28;20081;-44
2022/08/31 06:56:24;;;;;;;2.77;1.50;;;;;;;23.82;42.39;102237.94;5058467;28;20013;-46
2022/08/31 06:58:51;;;;;;;7.57;1.63;;;;;;;24.43;41.29;102242.13;5040849;28;20026;-44
2022/08/31 07:01:27;;;;;;;5.03;1.80;;;;;;;25.08;39.90;102238.31;5058723;28;20036;-43
2022/08/31 07:03:56;;;;;;;7.47;1.75;;;;;;;25.33;39.17;102245.41;5059346;28;20017;-43
2022/08/31 07:06:24;;;;;;;5.07;1.70;;;;;;;25.33;38.99;102248.16;5054605;28;20017;-43
2022/08/31 07:08:51;;;;;;;5.63;1.77;;;;;;;25.56;39.16;102252.72;5059387;28;20048;-42
2022/08/31 07:11:23;;;;;;;10.32;1.73;;;;;;;25.74;38.57;102257.19;5059009;28;20022;-44
2022/08/31 07:13:51;;;;;;;2.10;1.33;;;;;;;26.02;37.95;102259.06;5052115;28;20025;-44
2022/08/31 07:16:19;;;;;;;5.95;1.40;;;;;;;26.21;37.88;102263.22;5057902;28;20014;-44
2022/08/31 07:18:45;;;;;;;10.90;1.88;;;;;;;26.46;36.58;102268.31;5059080;28;20029;-42
2022/08/31 07:21:16;;;;;;;4.33;1.40;;;;;;;26.24;36.84;102268.22;5053223;28;20035;-44
2022/08/31 07:23:42;;;;;;;4.20;1.75;;;;;;;26.40;36.66;102263.78;5059303;28;20029;-44
2022/08/31 07:26:14;;;;;;;2.92;1.45;;;;;;;26.96;35.52;102266.47;5058574;28;20029;-43
2022/08/31 07:28:43;;;;;;;4.30;1.42;;;;;;;26.94;35.45;102265.91;5058063;28;20036;-45
2022/08/31 07:31:10;;;;;;;9.43;1.52;;;;;;;26.95;36.09;102272.28;5058766;28;20053;-45
2022/08/31 07:33:39;;;;;;;;;;;;;;;27.17;35.55;102267.56;5057692;28;20021;-44
2022/08/31 07:36:10;;;;;;;7.22;1.70;;;;;;;27.08;34.94;102263.59;5058103;28;19908;-43
2022/08/31 07:44:22;;;;;;;5.35;1.20;;;;;;;27.25;35.06;102264.38;5025054;28;20068;-43
2022/08/31 07:46:48;;;;;;;4.57;1.27;;;;;;;27.73;34.61;102262.63;5054514;28;20021;-45
2022/08/31 07:49:14;;;;;;;6.30;1.90;;;;;;;27.97;33.45;102262.31;5044755;28;20026;-45
2022/08/31 07:51:49;;;;;;;6.35;0.98;;;;;;;28.46;32.79;102264.88;5057936;28;20021;-43
2022/08/31 07:54:26;;;;;;;7.72;1.27;;;;;;;28.51;32.65;102262.13;5058127;28;20033;-45
2022/08/31 07:56:51;;;;;;;;;;;;;;;28.30;32.86;102257.53;5057105;28;20017;-43
2022/08/31 07:59:18;;;;;;;2.87;1.30;;;;;;;28.74;32.18;102257.25;5057892;28;19896;-43
2022/08/31 08:01:44;;;;;;;;;;;;;;;28.49;31.67;102258.81;5058200;28;20032;-43
2022/08/31 08:04:17;;;;;;;5.00;1.07;;;;;;;28.18;31.96;102266.88;5058133;28;19901;-44
2022/08/31 08:06:43;;;;;;;2.67;1.13;;;;;;;28.18;31.64;102269.66;5057582;28;20024;-43
2022/08/31 08:09:10;;;;;;;3.10;1.15;;;;;;;27.96;31.75;102264.25;5057927;28;20048;-44
2022/08/31 08:11:36;;;;;;;4.45;1.30;;;;;;;27.79;31.90;102272.63;5057859;28;20021;-43
2022/08/31 08:14:05;;;;;;;6.18;1.20;;;;;;;28.17;32.29;102269.91;5040875;28;20037;-46
2022/08/31 08:16:31;;;;;;;9.02;1.58;;;;;;;28.31;31.49;102267.53;5057461;28;20013;-45
2022/08/31 08:18:57;;;;;;;16.38;1.30;;;;;;;28.29;31.35;102280.81;5059975;28;20017;-43
2022/08/31 08:21:22;;;;;;;1.70;1.20;;;;;;;27.94;31.01;102268.38;5050422;28;20090;-43
2022/08/31 08:23:47;;;;;;;5.65;1.20;;;;;;;27.58;32.39;102268.84;5057614;28;20044;-44
2022/08/31 08:26:13;;;;;;;3.97;1.27;;;;;;;28.01;32.11;102277.25;5056945;28;20021;-42
2022/08/31 08:28:38;;;;;;;1.60;1.30;;;;;;;28.21;30.94;102271.88;5057538;28;20021;-43
2022/08/31 08:31:05;;;;;;;4.50;1.40;;;;;;;28.56;31.33;102273.22;5055959;28;20037;-43
2022/08/31 08:33:30;;;;;;;2.63;1.35;;;;;;;29.18;30.27;102276.31;5055345;28;20063;-43
2022/08/31 08:35:59;;;;;;;2.55;1.10;;;;;;;29.18;29.43;102265.22;5045750;28;20133;-43
2022/08/31 08:38:31;;;;;;;5.80;1.20;;;;;;;29.38;29.22;102276.34;5056146;28;20100;-45
2022/08/31 08:40:59;;;;;;;3.42;1.40;;;;;;;28.65;29.70;102268.03;5039586;28;20025;-44
2022/08/31 08:43:33;;;;;;;2.15;1.10;;;;;;;28.72;29.54;102278.84;5047935;28;20048;-43
2022/08/31 08:46:01;;;;;;;4.28;1.10;;;;;;;28.26;30.64;102271.09;5039331;28;20048;-43
2022/08/31 08:48:29;;;;;;;10.07;1.30;;;;;;;28.50;30.73;102270.72;5049933;28;20060;-45
2022/08/31 08:50:55;;;;;;;10.13;1.20;;;;;;;28.43;30.49;102270.91;5054998;28;20028;-44
2022/08/31 08:53:22;;;;;;;6.70;1.20;;;;;;;28.35;31.24;102279.72;5056146;28;20109;-44
2022/08/31 08:55:47;;;;;;;;;;;;;;;28.63;30.35;102276.59;5050563;28;20025;-43
2022/08/31 08:58:18;;;;;;;3.87;1.30;;;;;;;28.82;30.14;102278.91;5055575;28;19915;-43
2022/08/31 09:00:48;;;;;;;3.75;1.13;;;;;;;29.02;30.27;102267.91;5054540;28;20041;-44
2022/08/31 09:03:32;;;;;;;7.70;1.10;;;;;;;29.61;29.07;102285.25;5046341;28;20021;-42
2022/08/31 09:06:14;;;;;;;3.20;1.23;;;;;;;29.56;29.08;102288.03;5053454;28;20056;-44
2022/08/31 09:09:07;;;;;;;3.42;1.10;;;;;;;29.78;28.53;102291.44;5045834;28;20046;-43
2022/08/31 09:11:52;;;;;;;1.80;1.27;;;;;;;29.43;28.98;102290.22;5050582;28;20052;-42
2022/08/31 09:14:35;;;;;;;4.95;1.20;;;;;;;29.15;30.10;102283.22;5054705;28;20041;-42
2022/08/31 09:17:21;;;;;;;6.20;1.40;;;;;;;29.45;29.18;102290.78;5054780;28;20029;-41
2022/08/31 09:20:03;;;;;;;4.47;1.20;;;;;;;29.00;29.87;102285.91;5051036;28;20030;-42
2022/08/31 09:22:31;;;;;;;5.95;1.25;;;;;;;29.15;29.99;102285.16;5050149;28;20032;-43
2022/08/31 09:24:58;;;;;;;7.70;1.10;;;;;;;29.24;29.47;102305.72;5050778;28;20053;-44
2022/08/31 09:27:49;;;;;;;3.97;1.58;;;;;;;28.88;30.12;102288.91;5054190;28;20037;-43
2022/08/31 09:30:51;;;;;;;6.53;1.40;;;;;;;28.64;30.30;102286.56;5045841;28;20120;-44
2022/08/31 09:33:23;;;;;;;5.28;1.30;;;;;;;28.34;30.87;102294.69;5054377;28;20037;-43
2022/08/31 09:35:55;;;;;;;9.77;1.60;;;;;;;28.42;31.00;102285.88;5046559;28;20021;-42
2022/08/31 09:38:35;;;;;;;6.65;1.30;;;;;;;28.84;30.06;102282.25;5056399;28;20017;-42
2022/08/31 09:41:02;;;;;;;6.93;1.40;;;;;;;28.89;29.99;102279.50;5052230;28;20026;-44
2022/08/31 09:43:33;;;;;;;5.53;1.15;;;;;;;28.39;31.06;102292.78;5045615;28;20045;-43
2022/08/31 09:46:11;;;;;;;5.90;1.65;;;;;;;28.25;30.86;102274.94;5053907;28;20021;-45
2022/08/31 09:48:42;;;;;;;3.78;1.52;;;;;;;28.55;31.29;102279.88;5054051;28;20044;-44
2022/08/31 09:51:09;;;;;;;5.47;1.50;;;;;;;28.97;30.85;102270.66;5054419;28;20018;-41
2022/08/31 09:56:25;;;;;;;6.07;1.10;;;;;;;29.04;30.82;102279.59;5054412;28;20287;-44
2022/08/31 09:58:53;;;;;;;2.08;1.15;;;;;;;28.83;30.99;102266.72;5035801;28;20041;-45
2022/08/31 10:01:24;;;;;;;7.45;1.48;;;;;;;28.16;31.89;102282.09;5053075;28;20029;-42
2022/08/31 10:04:07;;;;;;;3.70;1.58;;;;;;;27.40;33.04;102271.16;5052513;28;20025;-42
2022/08/31 10:06:56;;;;;;;7.70;1.83;;;;;;;26.46;35.32;102271.06;5053067;28;20021;-42
2022/08/31 10:09:45;;;;;;;5.60;1.70;;;;;;;25.91;35.49;102273.75;5055182;28;20041;-44
2022/08/31 10:12:17;;;;;;;4.72;1.60;;;;;;;25.36;36.39;102264.25;5038424;28;20026;-44
2022/08/31 10:14:49;;;;;;;6.75;1.50;;;;;;;25.05;38.70;102260.84;5055308;28;20032;-44
2022/08/31 10:17:28;;;;;;;8.07;1.83;;;;;;;24.91;38.68;102252.03;5045872;28;20022;-44
2022/08/31 10:20:05;;;;;;;9.73;1.48;;;;;;;25.21;37.79;102247.41;5055238;28;20044;-42
2022/08/31 10:22:35;;;;;;;3.67;1.50;;;;;;;25.19;37.30;102256.72;5053597;28;20081;-44
2022/08/31 10:25:11;;;;;;;5.00;1.75;;;;;;;24.89;38.58;102258.88;5055283;28;20045;-44
2022/08/31 10:27:47;;;;;;;5.63;1.70;;;;;;;24.64;39.37;102259.97;5034685;28;20018;-42
2022/08/31 10:30:31;;;;;;;6.93;1.60;;;;;;;24.58;39.06;102254.63;5023283;28;20022;-42
2022/08/31 10:32:56;;;;;;;4.55;1.77;;;;;;;24.37;39.63;102258.78;5055318;28;20040;-42
2022/08/31 10:35:39;;;;;;;8.55;1.90;;;;;;;24.16;40.92;102250.06;5054512;28;20025;-43
2022/08/31 10:38:22;;;;;;;5.35;1.98;;;;;;;24.02;40.54;102251.38;5054217;28;20020;-44
2022/08/31 10:40:59;;;;;;;5.10;2.00;;;;;;;23.82;41.37;102244.28;5053725;28;20022;-42
2022/08/31 10:43:30;;;;;;;7.88;2.00;;;;;;;24.12;41.67;102240.63;5053964;28;20254;-43
2022/08/31 10:45:56;;;;;;;5.30;1.70;;;;;;;24.12;41.51;102240.63;5054100;28;20059;-44
2022/08/31 10:48:23;;;;;;;3.90;1.80;;;;;;;24.08;41.60;102220.16;5053659;28;20037;-42
2022/08/31 10:51:07;;;;;;;3.97;2.00;;;;;;;23.78;41.95;102240.34;5050622;28;20101;-44
2022/08/31 10:54:05;;;;;;;9.27;1.80;;;;;;;23.91;42.21;102227.44;5051157;28;20027;-44
2022/08/31 10:56:48;;;;;;;9.80;2.15;;;;;;;24.08;41.69;102239.41;5050315;28;20030;-42
2022/08/31 10:59:39;;;;;;;9.70;1.88;;;;;;;24.15;41.13;102237.38;5056084;28;20124;-42
2022/08/31 11:02:21;;;;;;;5.28;1.98;;;;;;;24.20;41.17;102245.75;5022964;28;20022;-43
2022/08/31 11:05:00;;;;;;;5.35;2.00;;;;;;;24.37;41.04;102236.78;5055869;28;20025;-43
2022/08/31 11:07:32;;;;;;;8.77;2.42;;;;;;;24.09;40.61;102241.06;5056524;28;20049;-43
2022/08/31 11:10:00;;;;;;;7.45;2.40;;;;;;;23.97;41.33;102243.00;5051020;28;20029;-42
2022/08/31 11:12:35;;;;;;;8.48;2.20;;;;;;;24.14;41.20;102241.19;5058584;28;20017;-43
2022/08/31 11:15:24;;;;;;;9.23;1.95;;;;;;;24.88;38.63;102251.66;5041379;28;20028;-43
2022/08/31 11:18:01;;;;;;;5.53;2.00;;;;;;;25.22;38.42;102249.06;5045602;28;20033;-41
2022/08/31 11:20:31;;;;;;;9.25;2.17;;;;;;;25.65;38.30;102247.66;5058055;28;20041;-42
2022/08/31 11:23:09;;;;;;;6.88;1.75;;;;;;;26.43;36.89;102245.88;5047677;28;20110;-43
2022/08/31 11:26:00;;;;;;;5.45;1.73;;;;;;;26.92;35.51;102251.53;5056907;28;20034;-42
2022/08/31 11:28:33;;;;;;;8.00;2.00;;;;;;;27.17;35.21;102241.84;5058318;28;20029;-43
2022/08/31 11:31:22;;;;;;;13.70;1.90;;;;;;;27.28;35.68;102243.69;5058131;28;20021;-44
2022/08/31 11:33:55;;;;;;;4.93;2.00;;;;;;;27.23;35.18;102238.91;5042266;28;20045;-42
2022/08/31 11:36:48;;;;;;;5.38;2.00;;;;;;;26.91;35.82;102231.34;5054025;28;20120;-46
2022/08/31 11:39:29;;;;;;;13.48;2.38;;;;;;;27.35;34.75;102239.56;5051564;28;20084;-43
2022/08/31 11:41:55;;;;;;;8.02;2.25;;;;;;;27.57;34.37;102228.47;5056696;28;20017;-43
2022/08/31 11:44:28;;;;;;;6.28;1.98;;;;;;;27.66;34.68;102216.91;5058424;28;20049;-43
2022/08/31 11:47:03;;;;;;;10.90;2.10;;;;;;;28.30;33.97;102218.78;5058792;28;20041;-43
2022/08/31 11:49:44;;;;;;;5.90;2.17;;;;;;;28.56;33.30;102215.06;5045188;28;20076;-42